sensor_id;sensor_type;location;lat;lon;timestamp;temperature;humidity
12588;DHT22;6359;51.450;7.346;2023-02-28T00:00:00;-1.50;99.90
12588;DHT22;6359;51.450;7.346;2023-02-28T00:02:33;-1.50;99.90
12588;DHT22;6359;51.450;7.346;2023-02-28T00:05:00;-1.60;99.90
12588;DHT22;6359;51.450;7.346;2023-02-28T00:07:29;-1.50;99.90
12588;DHT22;6359;51.450;7.346;2023-02-28T00:09:56;-1.60;99.90
12588;DHT22;6359;51.450;7.346;2023-02-28T00:12:23;-1.50;99.90
12588;DHT22;6359;51.450;7.346;2023-02-28T00:14:51;-1.60;99.90
12588;DHT22;6359;51.450;7.346;2023-02-28T00:17:18;-1.50;99.90
12588;DHT22;6359;51.450;7.346;2023-02-28T00:19:46;-1.40;99.90
12588;DHT22;6359;51.450;7.346;2023-02-28T00:22:14;-1.40;99.90
12588;DHT22;6359;51.450;7.346;2023-02-28T00:24:41;-1.20;99.90
12588;DHT22;6359;51.450;7.346;2023-02-28T00:27:08;-1.20;99.90
12588;DHT22;6359;51.450;7.346;2023-02-28T00:29:35;-1.10;99.90
12588;DHT22;6359;51.450;7.346;2023-02-28T00:32:04;-1.00;99.90
12588;DHT22;6359;51.450;7.346;2023-02-28T00:34:31;-1.00;99.90
12588;DHT22;6359;51.450;7.346;2023-02-28T00:37:04;-1.00;99.90
12588;DHT22;6359;51.450;7.346;2023-02-28T00:39:34;-1.00;99.90
12588;DHT22;6359;51.450;7.346;2023-02-28T00:42:01;-1.00;99.90
12588;DHT22;6359;51.450;7.346;2023-02-28T00:44:28;-1.10;99.90
12588;DHT22;6359;51.450;7.346;2023-02-28T00:46:55;-1.00;99.90
12588;DHT22;6359;51.450;7.346;2023-02-28T00:49:24;-1.00;99.90
12588;DHT22;6359;51.450;7.346;2023-02-28T00:51:51;-1.00;99.90
12588;DHT22;6359;51.450;7.346;2023-02-28T00:54:18;-1.10;99.90
12588;DHT22;6359;51.450;7.346;2023-02-28T00:56:45;-1.20;99.90
12588;DHT22;6359;51.450;7.346;2023-02-28T00:59:13;-1.30;99.90
12588;DHT22;6359;51.450;7.346;2023-02-28T01:01:40;-1.40;99.90
12588;DHT22;6359;51.450;7.346;2023-02-28T01:04:07;-1.50;99.90
12588;DHT22;6359;51.450;7.346;2023-02-28T01:06:36;-1.60;99.90
12588;DHT22;6359;51.450;7.346;2023-02-28T01:09:04;-1.70;99.90
12588;DHT22;6359;51.450;7.346;2023-02-28T01:11:31;-1.70;99.90
12588;DHT22;6359;51.450;7.346;2023-02-28T01:13:58;-1.80;99.90
12588;DHT22;6359;51.450;7.346;2023-02-28T01:16:26;-1.90;99.90
12588;DHT22;6359;51.450;7.346;2023-02-28T01:18:53;-1.90;99.90
12588;DHT22;6359;51.450;7.346;2023-02-28T01:21:21;-2.00;99.90
12588;DHT22;6359;51.450;7.346;2023-02-28T01:23:50;-2.10;99.90
12588;DHT22;6359;51.450;7.346;2023-02-28T01:26:20;-2.20;99.90
12588;DHT22;6359;51.450;7.346;2023-02-28T01:28:47;-2.30;99.90
12588;DHT22;6359;51.450;7.346;2023-02-28T01:31:14;-2.40;99.90
12588;DHT22;6359;51.450;7.346;2023-02-28T01:33:41;-2.50;99.90
12588;DHT22;6359;51.450;7.346;2023-02-28T01:36:11;-2.60;99.90
12588;DHT22;6359;51.450;7.346;2023-02-28T01:38:39;-2.70;99.90
12588;DHT22;6359;51.450;7.346;2023-02-28T01:41:08;-2.80;99.90
12588;DHT22;6359;51.450;7.346;2023-02-28T01:43:52;-2.80;99.90
12588;DHT22;6359;51.450;7.346;2023-02-28T01:46:19;-3.00;99.90
12588;DHT22;6359;51.450;7.346;2023-02-28T01:48:49;-3.10;99.90
12588;DHT22;6359;51.450;7.346;2023-02-28T01:51:20;-3.20;99.90
12588;DHT22;6359;51.450;7.346;2023-02-28T01:53:51;-3.20;99.90
12588;DHT22;6359;51.450;7.346;2023-02-28T01:56:23;-3.30;99.90
12588;DHT22;6359;51.450;7.346;2023-02-28T01:58:51;-3.30;99.90
12588;DHT22;6359;51.450;7.346;2023-02-28T02:01:19;-3.30;99.90
12588;DHT22;6359;51.450;7.346;2023-02-28T02:03:48;-3.30;99.90
12588;DHT22;6359;51.450;7.346;2023-02-28T02:06:21;-3.40;99.90
12588;DHT22;6359;51.450;7.346;2023-02-28T02:08:48;-3.40;99.90
12588;DHT22;6359;51.450;7.346;2023-02-28T02:11:18;-3.50;99.90
12588;DHT22;6359;51.450;7.346;2023-02-28T02:14:10;-3.60;99.90
12588;DHT22;6359;51.450;7.346;2023-02-28T02:16:51;-3.70;99.90
12588;DHT22;6359;51.450;7.346;2023-02-28T02:19:53;-3.70;99.90
12588;DHT22;6359;51.450;7.346;2023-02-28T02:25:28;-3.80;99.90
12588;DHT22;6359;51.450;7.346;2023-02-28T02:28:26;-3.80;99.90
12588;DHT22;6359;51.450;7.346;2023-02-28T02:31:24;-3.80;99.90
12588;DHT22;6359;51.450;7.346;2023-02-28T02:34:28;-3.80;99.90
12588;DHT22;6359;51.450;7.346;2023-02-28T02:37:03;-3.70;99.90
12588;DHT22;6359;51.450;7.346;2023-02-28T02:39:38;-3.40;99.90
12588;DHT22;6359;51.450;7.346;2023-02-28T02:42:13;-3.20;99.90
12588;DHT22;6359;51.450;7.346;2023-02-28T02:44:45;-3.20;99.90
12588;DHT22;6359;51.450;7.346;2023-02-28T02:47:16;-3.20;99.90
12588;DHT22;6359;51.450;7.346;2023-02-28T02:49:48;-3.20;99.90
12588;DHT22;6359;51.450;7.346;2023-02-28T02:52:17;-3.10;99.90
12588;DHT22;6359;51.450;7.346;2023-02-28T02:54:48;-3.10;99.90
12588;DHT22;6359;51.450;7.346;2023-02-28T02:57:22;-3.10;99.90
12588;DHT22;6359;51.450;7.346;2023-02-28T02:59:51;-3.30;99.90
12588;DHT22;6359;51.450;7.346;2023-02-28T03:02:21;-3.40;99.90
12588;DHT22;6359;51.450;7.346;2023-02-28T03:04:52;-3.50;99.90
12588;DHT22;6359;51.450;7.346;2023-02-28T03:07:20;-3.50;99.90
12588;DHT22;6359;51.450;7.346;2023-02-28T03:09:51;-3.30;99.90
12588;DHT22;6359;51.450;7.346;2023-02-28T03:12:19;-3.20;99.90
12588;DHT22;6359;51.450;7.346;2023-02-28T03:14:55;-3.10;99.90
12588;DHT22;6359;51.450;7.346;2023-02-28T03:17:51;-3.00;99.90
12588;DHT22;6359;51.450;7.346;2023-02-28T03:20:32;-3.10;99.90
12588;DHT22;6359;51.450;7.346;2023-02-28T03:23:10;-3.10;99.90
12588;DHT22;6359;51.450;7.346;2023-02-28T03:25:50;-3.20;99.90
12588;DHT22;6359;51.450;7.346;2023-02-28T03:28:22;-3.30;99.90
12588;DHT22;6359;51.450;7.346;2023-02-28T03:30:52;-3.40;99.90
12588;DHT22;6359;51.450;7.346;2023-02-28T03:33:23;-3.40;99.90
12588;DHT22;6359;51.450;7.346;2023-02-28T03:35:56;-3.40;99.90
12588;DHT22;6359;51.450;7.346;2023-02-28T03:38:29;-3.40;99.90
12588;DHT22;6359;51.450;7.346;2023-02-28T03:41:01;-3.40;99.90
12588;DHT22;6359;51.450;7.346;2023-02-28T03:43:33;-3.30;99.90
12588;DHT22;6359;51.450;7.346;2023-02-28T03:46:06;-3.30;99.90
12588;DHT22;6359;51.450;7.346;2023-02-28T03:48:39;-3.20;99.90
12588;DHT22;6359;51.450;7.346;2023-02-28T03:51:10;-3.30;99.90
12588;DHT22;6359;51.450;7.346;2023-02-28T03:53:42;-3.30;99.90
12588;DHT22;6359;51.450;7.346;2023-02-28T03:56:14;-3.30;99.90
12588;DHT22;6359;51.450;7.346;2023-02-28T03:58:47;-3.20;99.90
12588;DHT22;6359;51.450;7.346;2023-02-28T04:01:18;-3.20;99.90
12588;DHT22;6359;51.450;7.346;2023-02-28T04:03:46;-3.30;99.90
12588;DHT22;6359;51.450;7.346;2023-02-28T04:06:17;-3.50;99.90
12588;DHT22;6359;51.450;7.346;2023-02-28T04:08:45;-3.50;99.90
12588;DHT22;6359;51.450;7.346;2023-02-28T04:11:18;-3.40;99.90
12588;DHT22;6359;51.450;7.346;2023-02-28T04:13:46;-3.40;99.90
12588;DHT22;6359;51.450;7.346;2023-02-28T04:16:13;-3.30;99.90
12588;DHT22;6359;51.450;7.346;2023-02-28T04:18:40;-3.20;99.90
12588;DHT22;6359;51.450;7.346;2023-02-28T04:21:08;-3.30;99.90
12588;DHT22;6359;51.450;7.346;2023-02-28T04:23:37;-3.40;99.90
12588;DHT22;6359;51.450;7.346;2023-02-28T04:26:04;-3.60;99.90
12588;DHT22;6359;51.450;7.346;2023-02-28T04:28:31;-3.70;99.90
12588;DHT22;6359;51.450;7.346;2023-02-28T04:31:00;-3.80;99.90
12588;DHT22;6359;51.450;7.346;2023-02-28T04:33:28;-3.80;99.90
12588;DHT22;6359;51.450;7.346;2023-02-28T04:35:59;-3.80;99.90
12588;DHT22;6359;51.450;7.346;2023-02-28T04:38:26;-3.90;99.90
12588;DHT22;6359;51.450;7.346;2023-02-28T04:40:57;-3.90;99.90
12588;DHT22;6359;51.450;7.346;2023-02-28T04:43:23;-3.80;99.90
12588;DHT22;6359;51.450;7.346;2023-02-28T04:45:50;-3.70;99.90
12588;DHT22;6359;51.450;7.346;2023-02-28T04:48:17;-3.60;99.90
12588;DHT22;6359;51.450;7.346;2023-02-28T04:50:44;-3.60;99.90
12588;DHT22;6359;51.450;7.346;2023-02-28T04:53:11;-3.50;99.90
12588;DHT22;6359;51.450;7.346;2023-02-28T04:55:38;-3.60;99.90
12588;DHT22;6359;51.450;7.346;2023-02-28T04:58:07;-3.50;99.90
12588;DHT22;6359;51.450;7.346;2023-02-28T05:00:34;-3.60;99.90
12588;DHT22;6359;51.450;7.346;2023-02-28T05:03:01;-3.60;99.90
12588;DHT22;6359;51.450;7.346;2023-02-28T05:05:28;-3.50;99.90
12588;DHT22;6359;51.450;7.346;2023-02-28T05:07:55;-3.50;99.90
12588;DHT22;6359;51.450;7.346;2023-02-28T05:10:22;-3.50;99.90
12588;DHT22;6359;51.450;7.346;2023-02-28T05:12:49;-3.70;99.90
12588;DHT22;6359;51.450;7.346;2023-02-28T05:15:17;-3.90;99.90
12588;DHT22;6359;51.450;7.346;2023-02-28T05:17:44;-4.00;99.90
12588;DHT22;6359;51.450;7.346;2023-02-28T05:20:12;-4.10;99.90
12588;DHT22;6359;51.450;7.346;2023-02-28T05:22:40;-4.20;99.90
12588;DHT22;6359;51.450;7.346;2023-02-28T05:25:09;-4.20;99.90
12588;DHT22;6359;51.450;7.346;2023-02-28T05:27:37;-4.30;99.90
12588;DHT22;6359;51.450;7.346;2023-02-28T05:30:06;-4.20;99.90
12588;DHT22;6359;51.450;7.346;2023-02-28T05:32:37;-4.20;99.90
12588;DHT22;6359;51.450;7.346;2023-02-28T05:35:04;-4.20;99.90
12588;DHT22;6359;51.450;7.346;2023-02-28T05:37:31;-4.20;99.90
12588;DHT22;6359;51.450;7.346;2023-02-28T05:39:58;-4.30;99.90
12588;DHT22;6359;51.450;7.346;2023-02-28T05:42:25;-4.30;99.90
12588;DHT22;6359;51.450;7.346;2023-02-28T05:44:52;-4.40;99.90
12588;DHT22;6359;51.450;7.346;2023-02-28T05:47:19;-4.40;99.90
12588;DHT22;6359;51.450;7.346;2023-02-28T05:49:47;-4.40;99.90
12588;DHT22;6359;51.450;7.346;2023-02-28T05:52:14;-4.40;99.90
12588;DHT22;6359;51.450;7.346;2023-02-28T05:54:41;-4.50;99.90
12588;DHT22;6359;51.450;7.346;2023-02-28T05:57:08;-4.50;99.90
12588;DHT22;6359;51.450;7.346;2023-02-28T05:59:35;-4.50;99.90
12588;DHT22;6359;51.450;7.346;2023-02-28T06:02:05;-4.60;99.90
12588;DHT22;6359;51.450;7.346;2023-02-28T06:04:32;-4.70;99.90
12588;DHT22;6359;51.450;7.346;2023-02-28T06:07:00;-4.70;99.90
12588;DHT22;6359;51.450;7.346;2023-02-28T06:09:28;-4.80;99.90
12588;DHT22;6359;51.450;7.346;2023-02-28T06:11:57;-4.80;99.90
12588;DHT22;6359;51.450;7.346;2023-02-28T06:14:24;-4.90;99.90
12588;DHT22;6359;51.450;7.346;2023-02-28T06:16:52;-4.90;99.90
12588;DHT22;6359;51.450;7.346;2023-02-28T06:19:19;-4.90;99.90
12588;DHT22;6359;51.450;7.346;2023-02-28T06:21:49;-4.80;99.90
12588;DHT22;6359;51.450;7.346;2023-02-28T06:24:17;-4.80;99.90
12588;DHT22;6359;51.450;7.346;2023-02-28T06:26:44;-4.70;99.90
12588;DHT22;6359;51.450;7.346;2023-02-28T06:29:11;-4.70;99.90
12588;DHT22;6359;51.450;7.346;2023-02-28T06:31:42;-4.70;99.90
12588;DHT22;6359;51.450;7.346;2023-02-28T06:34:09;-4.70;99.90
12588;DHT22;6359;51.450;7.346;2023-02-28T06:36:37;-4.70;99.90
12588;DHT22;6359;51.450;7.346;2023-02-28T06:39:04;-4.70;99.90
12588;DHT22;6359;51.450;7.346;2023-02-28T06:41:32;-4.70;99.90
12588;DHT22;6359;51.450;7.346;2023-02-28T06:44:03;-4.60;99.90
12588;DHT22;6359;51.450;7.346;2023-02-28T06:46:31;-4.60;99.90
12588;DHT22;6359;51.450;7.346;2023-02-28T06:48:58;-4.60;99.90
12588;DHT22;6359;51.450;7.346;2023-02-28T06:51:25;-4.50;99.90
12588;DHT22;6359;51.450;7.346;2023-02-28T06:53:52;-4.50;99.90
12588;DHT22;6359;51.450;7.346;2023-02-28T06:56:19;-4.30;99.90
12588;DHT22;6359;51.450;7.346;2023-02-28T06:58:48;-4.20;99.90
12588;DHT22;6359;51.450;7.346;2023-02-28T07:01:16;-4.10;99.90
12588;DHT22;6359;51.450;7.346;2023-02-28T07:03:43;-4.00;99.90
12588;DHT22;6359;51.450;7.346;2023-02-28T07:06:10;-3.90;99.90
12588;DHT22;6359;51.450;7.346;2023-02-28T07:08:37;-3.80;99.90
12588;DHT22;6359;51.450;7.346;2023-02-28T07:11:05;-3.70;99.90
12588;DHT22;6359;51.450;7.346;2023-02-28T07:13:32;-3.60;99.90
12588;DHT22;6359;51.450;7.346;2023-02-28T07:16:02;-3.50;99.90
12588;DHT22;6359;51.450;7.346;2023-02-28T07:18:29;-3.40;99.90
12588;DHT22;6359;51.450;7.346;2023-02-28T07:20:57;-3.30;99.90
12588;DHT22;6359;51.450;7.346;2023-02-28T07:23:24;-3.10;99.90
12588;DHT22;6359;51.450;7.346;2023-02-28T07:25:51;-3.00;99.90
12588;DHT22;6359;51.450;7.346;2023-02-28T07:28:18;-3.00;99.90
12588;DHT22;6359;51.450;7.346;2023-02-28T07:30:45;-2.90;99.90
12588;DHT22;6359;51.450;7.346;2023-02-28T07:33:14;-2.60;99.90
12588;DHT22;6359;51.450;7.346;2023-02-28T07:35:42;-2.70;99.90
12588;DHT22;6359;51.450;7.346;2023-02-28T07:38:09;-2.60;99.90
12588;DHT22;6359;51.450;7.346;2023-02-28T07:40:36;-2.40;99.90
12588;DHT22;6359;51.450;7.346;2023-02-28T07:43:03;-2.20;99.90
12588;DHT22;6359;51.450;7.346;2023-02-28T07:45:30;-2.00;99.90
12588;DHT22;6359;51.450;7.346;2023-02-28T07:48:00;-1.70;99.90
12588;DHT22;6359;51.450;7.346;2023-02-28T07:50:28;-1.40;99.90
12588;DHT22;6359;51.450;7.346;2023-02-28T07:52:57;-1.00;99.90
12588;DHT22;6359;51.450;7.346;2023-02-28T07:55:23;-0.60;99.90
12588;DHT22;6359;51.450;7.346;2023-02-28T07:57:50;-0.30;99.90
12588;DHT22;6359;51.450;7.346;2023-02-28T08:00:18;-0.10;99.90
12588;DHT22;6359;51.450;7.346;2023-02-28T08:02:45;-0.10;99.90
12588;DHT22;6359;51.450;7.346;2023-02-28T08:05:11;0.10;99.90
12588;DHT22;6359;51.450;7.346;2023-02-28T08:07:40;0.20;99.90
12588;DHT22;6359;51.450;7.346;2023-02-28T08:10:07;0.30;99.90
12588;DHT22;6359;51.450;7.346;2023-02-28T08:12:35;0.30;99.90
12588;DHT22;6359;51.450;7.346;2023-02-28T08:15:03;0.40;99.90
12588;DHT22;6359;51.450;7.346;2023-02-28T08:17:30;0.50;99.90
12588;DHT22;6359;51.450;7.346;2023-02-28T08:19:56;0.40;99.90
12588;DHT22;6359;51.450;7.346;2023-02-28T08:22:23;0.50;99.90
12588;DHT22;6359;51.450;7.346;2023-02-28T08:24:51;0.50;99.90
12588;DHT22;6359;51.450;7.346;2023-02-28T08:27:18;0.40;99.90
12588;DHT22;6359;51.450;7.346;2023-02-28T08:29:45;0.40;99.90
12588;DHT22;6359;51.450;7.346;2023-02-28T08:32:12;0.40;99.90
12588;DHT22;6359;51.450;7.346;2023-02-28T08:34:39;0.60;99.90
12588;DHT22;6359;51.450;7.346;2023-02-28T08:37:06;0.70;99.90
12588;DHT22;6359;51.450;7.346;2023-02-28T08:39:34;0.90;99.90
12588;DHT22;6359;51.450;7.346;2023-02-28T08:42:04;1.30;99.90
12588;DHT22;6359;51.450;7.346;2023-02-28T08:44:31;2.10;99.90
12588;DHT22;6359;51.450;7.346;2023-02-28T08:46:58;2.60;99.90
12588;DHT22;6359;51.450;7.346;2023-02-28T08:49:24;2.90;99.90
12588;DHT22;6359;51.450;7.346;2023-02-28T08:51:51;3.10;99.90
12588;DHT22;6359;51.450;7.346;2023-02-28T08:54:19;3.60;99.90
12588;DHT22;6359;51.450;7.346;2023-02-28T08:56:46;4.80;99.90
12588;DHT22;6359;51.450;7.346;2023-02-28T08:59:14;6.10;99.90
12588;DHT22;6359;51.450;7.346;2023-02-28T09:01:42;7.50;99.90
12588;DHT22;6359;51.450;7.346;2023-02-28T09:04:09;8.30;99.90
12588;DHT22;6359;51.450;7.346;2023-02-28T09:06:37;9.20;99.90
12588;DHT22;6359;51.450;7.346;2023-02-28T09:09:04;9.80;99.90
12588;DHT22;6359;51.450;7.346;2023-02-28T09:11:32;10.90;99.90
12588;DHT22;6359;51.450;7.346;2023-02-28T09:13:59;10.90;99.90
12588;DHT22;6359;51.450;7.346;2023-02-28T09:16:31;11.00;99.90
12588;DHT22;6359;51.450;7.346;2023-02-28T09:18:58;12.10;99.90
12588;DHT22;6359;51.450;7.346;2023-02-28T09:21:25;12.70;99.90
12588;DHT22;6359;51.450;7.346;2023-02-28T09:23:52;12.90;99.90
12588;DHT22;6359;51.450;7.346;2023-02-28T09:26:21;12.20;99.90
12588;DHT22;6359;51.450;7.346;2023-02-28T09:28:49;12.20;99.90
12588;DHT22;6359;51.450;7.346;2023-02-28T09:31:19;12.00;99.90
12588;DHT22;6359;51.450;7.346;2023-02-28T09:33:48;11.40;99.90
12588;DHT22;6359;51.450;7.346;2023-02-28T09:36:15;11.50;99.90
12588;DHT22;6359;51.450;7.346;2023-02-28T09:38:42;10.60;99.90
12588;DHT22;6359;51.450;7.346;2023-02-28T09:41:13;10.40;99.90
12588;DHT22;6359;51.450;7.346;2023-02-28T09:43:44;9.50;99.90
12588;DHT22;6359;51.450;7.346;2023-02-28T09:46:21;8.60;99.90
12588;DHT22;6359;51.450;7.346;2023-02-28T09:48:54;9.80;99.90
12588;DHT22;6359;51.450;7.346;2023-02-28T09:51:34;11.70;99.90
12588;DHT22;6359;51.450;7.346;2023-02-28T09:54:03;12.70;99.90
12588;DHT22;6359;51.450;7.346;2023-02-28T09:56:33;12.80;99.90
12588;DHT22;6359;51.450;7.346;2023-02-28T09:59:05;13.00;99.90
12588;DHT22;6359;51.450;7.346;2023-02-28T10:01:40;12.70;99.90
12588;DHT22;6359;51.450;7.346;2023-02-28T10:04:17;11.40;99.90
12588;DHT22;6359;51.450;7.346;2023-02-28T10:06:55;10.80;99.90
12588;DHT22;6359;51.450;7.346;2023-02-28T10:09:25;9.50;99.90
12588;DHT22;6359;51.450;7.346;2023-02-28T10:11:57;8.30;99.90
12588;DHT22;6359;51.450;7.346;2023-02-28T10:14:28;7.30;99.90
12588;DHT22;6359;51.450;7.346;2023-02-28T10:16:59;6.50;99.90
12588;DHT22;6359;51.450;7.346;2023-02-28T10:19:34;6.50;99.90
12588;DHT22;6359;51.450;7.346;2023-02-28T10:22:05;7.30;99.90
12588;DHT22;6359;51.450;7.346;2023-02-28T10:24:40;8.40;99.90
12588;DHT22;6359;51.450;7.346;2023-02-28T10:27:14;9.40;99.90
12588;DHT22;6359;51.450;7.346;2023-02-28T10:29:43;9.90;99.90
12588;DHT22;6359;51.450;7.346;2023-02-28T10:32:14;9.40;99.90
12588;DHT22;6359;51.450;7.346;2023-02-28T10:34:43;9.90;99.90
12588;DHT22;6359;51.450;7.346;2023-02-28T10:37:11;9.90;99.90
12588;DHT22;6359;51.450;7.346;2023-02-28T10:39:40;9.80;99.90
12588;DHT22;6359;51.450;7.346;2023-02-28T10:42:20;8.50;99.90
12588;DHT22;6359;51.450;7.346;2023-02-28T10:45:05;8.40;99.90
12588;DHT22;6359;51.450;7.346;2023-02-28T10:47:34;8.90;99.90
12588;DHT22;6359;51.450;7.346;2023-02-28T10:50:03;9.50;99.90
12588;DHT22;6359;51.450;7.346;2023-02-28T10:52:37;10.10;99.90
12588;DHT22;6359;51.450;7.346;2023-02-28T10:55:19;9.20;99.90
12588;DHT22;6359;51.450;7.346;2023-02-28T10:57:47;8.70;99.90
12588;DHT22;6359;51.450;7.346;2023-02-28T11:00:16;8.90;99.90
12588;DHT22;6359;51.450;7.346;2023-02-28T11:02:44;9.40;99.90
12588;DHT22;6359;51.450;7.346;2023-02-28T11:05:28;10.00;99.90
12588;DHT22;6359;51.450;7.346;2023-02-28T11:07:59;10.40;99.90
12588;DHT22;6359;51.450;7.346;2023-02-28T11:10:30;9.60;99.90
12588;DHT22;6359;51.450;7.346;2023-02-28T11:13:00;9.50;99.90
12588;DHT22;6359;51.450;7.346;2023-02-28T11:15:29;9.80;99.90
12588;DHT22;6359;51.450;7.346;2023-02-28T11:17:59;10.30;99.90
12588;DHT22;6359;51.450;7.346;2023-02-28T11:20:30;9.80;99.90
12588;DHT22;6359;51.450;7.346;2023-02-28T11:22:58;9.90;99.90
12588;DHT22;6359;51.450;7.346;2023-02-28T11:25:29;10.00;99.90
12588;DHT22;6359;51.450;7.346;2023-02-28T11:27:58;9.50;99.90
12588;DHT22;6359;51.450;7.346;2023-02-28T11:30:32;9.70;99.90
12588;DHT22;6359;51.450;7.346;2023-02-28T11:33:01;8.30;99.90
12588;DHT22;6359;51.450;7.346;2023-02-28T11:35:33;6.70;99.90
12588;DHT22;6359;51.450;7.346;2023-02-28T11:38:01;6.50;99.90
12588;DHT22;6359;51.450;7.346;2023-02-28T11:40:35;6.60;99.90
12588;DHT22;6359;51.450;7.346;2023-02-28T11:43:23;7.40;99.90
12588;DHT22;6359;51.450;7.346;2023-02-28T11:46:04;7.50;99.90
12588;DHT22;6359;51.450;7.346;2023-02-28T11:48:41;7.00;99.90
12588;DHT22;6359;51.450;7.346;2023-02-28T11:51:20;6.20;99.90
12588;DHT22;6359;51.450;7.346;2023-02-28T11:54:02;6.10;99.90
12588;DHT22;6359;51.450;7.346;2023-02-28T11:56:37;5.70;99.90
12588;DHT22;6359;51.450;7.346;2023-02-28T11:59:28;6.00;99.90
12588;DHT22;6359;51.450;7.346;2023-02-28T12:04:54;6.50;99.90
12588;DHT22;6359;51.450;7.346;2023-02-28T12:07:32;6.70;99.90
12588;DHT22;6359;51.450;7.346;2023-02-28T12:10:13;6.20;99.90
12588;DHT22;6359;51.450;7.346;2023-02-28T12:12:51;5.80;99.90
12588;DHT22;6359;51.450;7.346;2023-02-28T12:15:44;5.90;99.90
12588;DHT22;6359;51.450;7.346;2023-02-28T12:18:31;5.90;99.90
12588;DHT22;6359;51.450;7.346;2023-02-28T12:21:07;6.20;99.90
12588;DHT22;6359;51.450;7.346;2023-02-28T12:23:47;6.10;99.90
12588;DHT22;6359;51.450;7.346;2023-02-28T12:26:23;5.80;99.90
12588;DHT22;6359;51.450;7.346;2023-02-28T12:29:02;5.90;99.90
12588;DHT22;6359;51.450;7.346;2023-02-28T12:31:33;5.90;99.90
12588;DHT22;6359;51.450;7.346;2023-02-28T12:34:06;5.60;99.90
12588;DHT22;6359;51.450;7.346;2023-02-28T12:36:35;5.40;99.90
12588;DHT22;6359;51.450;7.346;2023-02-28T12:39:09;5.30;99.90
12588;DHT22;6359;51.450;7.346;2023-02-28T12:41:41;5.30;99.90
12588;DHT22;6359;51.450;7.346;2023-02-28T12:44:12;5.50;99.90
12588;DHT22;6359;51.450;7.346;2023-02-28T12:46:43;5.60;99.90
12588;DHT22;6359;51.450;7.346;2023-02-28T12:49:13;6.10;99.90
12588;DHT22;6359;51.450;7.346;2023-02-28T12:51:42;6.30;99.90
12588;DHT22;6359;51.450;7.346;2023-02-28T12:54:18;6.30;99.90
12588;DHT22;6359;51.450;7.346;2023-02-28T12:56:50;6.30;99.90
12588;DHT22;6359;51.450;7.346;2023-02-28T12:59:25;6.10;99.90
12588;DHT22;6359;51.450;7.346;2023-02-28T13:02:01;6.00;99.90
12588;DHT22;6359;51.450;7.346;2023-02-28T13:04:40;5.90;99.90
12588;DHT22;6359;51.450;7.346;2023-02-28T13:07:24;5.80;99.90
12588;DHT22;6359;51.450;7.346;2023-02-28T13:10:00;5.60;99.90
12588;DHT22;6359;51.450;7.346;2023-02-28T13:12:28;5.80;99.90
12588;DHT22;6359;51.450;7.346;2023-02-28T13:15:04;6.00;99.90
12588;DHT22;6359;51.450;7.346;2023-02-28T13:17:32;6.10;99.90
12588;DHT22;6359;51.450;7.346;2023-02-28T13:20:00;6.20;99.90
12588;DHT22;6359;51.450;7.346;2023-02-28T13:22:39;5.90;99.90
12588;DHT22;6359;51.450;7.346;2023-02-28T13:31:31;5.90;99.90
12588;DHT22;6359;51.450;7.346;2023-02-28T13:34:13;5.90;99.90
12588;DHT22;6359;51.450;7.346;2023-02-28T13:36:40;5.90;99.90
12588;DHT22;6359;51.450;7.346;2023-02-28T13:42:31;6.10;99.90
12588;DHT22;6359;51.450;7.346;2023-02-28T13:45:20;5.70;99.90
12588;DHT22;6359;51.450;7.346;2023-02-28T13:47:54;5.50;99.90
12588;DHT22;6359;51.450;7.346;2023-02-28T13:50:24;5.50;99.90
12588;DHT22;6359;51.450;7.346;2023-02-28T13:53:02;5.70;99.90
12588;DHT22;6359;51.450;7.346;2023-02-28T13:55:35;5.80;99.90
12588;DHT22;6359;51.450;7.346;2023-02-28T13:58:10;5.90;99.90
12588;DHT22;6359;51.450;7.346;2023-02-28T14:00:52;5.70;99.90
12588;DHT22;6359;51.450;7.346;2023-02-28T14:03:37;5.80;99.90
12588;DHT22;6359;51.450;7.346;2023-02-28T14:06:22;5.80;99.90
12588;DHT22;6359;51.450;7.346;2023-02-28T14:08:55;5.90;99.90
12588;DHT22;6359;51.450;7.346;2023-02-28T14:11:29;5.80;99.90
12588;DHT22;6359;51.450;7.346;2023-02-28T14:13:57;5.80;99.90
12588;DHT22;6359;51.450;7.346;2023-02-28T14:16:27;5.70;99.90
12588;DHT22;6359;51.450;7.346;2023-02-28T14:19:09;5.70;99.90
12588;DHT22;6359;51.450;7.346;2023-02-28T14:21:40;5.90;99.90
12588;DHT22;6359;51.450;7.346;2023-02-28T14:24:48;6.00;99.90
12588;DHT22;6359;51.450;7.346;2023-02-28T14:27:27;5.90;99.90
12588;DHT22;6359;51.450;7.346;2023-02-28T14:30:37;5.90;99.90
12588;DHT22;6359;51.450;7.346;2023-02-28T14:33:26;6.00;99.90
12588;DHT22;6359;51.450;7.346;2023-02-28T14:36:06;6.20;99.90
12588;DHT22;6359;51.450;7.346;2023-02-28T14:38:38;6.10;99.90
12588;DHT22;6359;51.450;7.346;2023-02-28T14:41:16;6.10;99.90
12588;DHT22;6359;51.450;7.346;2023-02-28T14:43:49;5.90;99.90
12588;DHT22;6359;51.450;7.346;2023-02-28T14:46:18;5.80;99.90
12588;DHT22;6359;51.450;7.346;2023-02-28T14:48:45;5.80;99.90
12588;DHT22;6359;51.450;7.346;2023-02-28T14:51:18;5.80;99.90
12588;DHT22;6359;51.450;7.346;2023-02-28T14:53:49;5.60;99.90
12588;DHT22;6359;51.450;7.346;2023-02-28T14:56:21;5.60;99.90
12588;DHT22;6359;51.450;7.346;2023-02-28T14:58:52;5.50;99.90
12588;DHT22;6359;51.450;7.346;2023-02-28T15:01:20;5.50;99.90
12588;DHT22;6359;51.450;7.346;2023-02-28T15:03:47;5.50;99.90
12588;DHT22;6359;51.450;7.346;2023-02-28T15:06:17;5.40;99.90
12588;DHT22;6359;51.450;7.346;2023-02-28T15:08:44;5.30;99.90
12588;DHT22;6359;51.450;7.346;2023-02-28T15:11:15;5.40;99.90
12588;DHT22;6359;51.450;7.346;2023-02-28T15:13:46;5.40;99.90
12588;DHT22;6359;51.450;7.346;2023-02-28T15:16:17;5.40;99.90
12588;DHT22;6359;51.450;7.346;2023-02-28T15:18:48;5.40;99.90
12588;DHT22;6359;51.450;7.346;2023-02-28T15:21:21;5.40;99.90
12588;DHT22;6359;51.450;7.346;2023-02-28T15:23:50;5.40;99.90
12588;DHT22;6359;51.450;7.346;2023-02-28T15:26:21;5.30;99.90
12588;DHT22;6359;51.450;7.346;2023-02-28T15:28:59;5.30;99.90
12588;DHT22;6359;51.450;7.346;2023-02-28T15:31:28;5.30;99.90
12588;DHT22;6359;51.450;7.346;2023-02-28T15:33:57;5.30;99.90
12588;DHT22;6359;51.450;7.346;2023-02-28T15:36:29;5.40;99.90
12588;DHT22;6359;51.450;7.346;2023-02-28T15:38:57;5.40;99.90
12588;DHT22;6359;51.450;7.346;2023-02-28T15:41:26;5.40;99.90
12588;DHT22;6359;51.450;7.346;2023-02-28T15:44:24;5.50;99.90
12588;DHT22;6359;51.450;7.346;2023-02-28T15:46:58;5.50;99.90
12588;DHT22;6359;51.450;7.346;2023-02-28T15:49:28;5.40;99.90
12588;DHT22;6359;51.450;7.346;2023-02-28T15:51:58;5.30;99.90
12588;DHT22;6359;51.450;7.346;2023-02-28T15:54:29;5.30;99.90
12588;DHT22;6359;51.450;7.346;2023-02-28T15:56:58;5.20;99.90
12588;DHT22;6359;51.450;7.346;2023-02-28T15:59:29;5.20;99.90
12588;DHT22;6359;51.450;7.346;2023-02-28T16:02:13;5.10;99.90
12588;DHT22;6359;51.450;7.346;2023-02-28T16:04:57;5.10;99.90
12588;DHT22;6359;51.450;7.346;2023-02-28T16:07:25;4.90;99.90
12588;DHT22;6359;51.450;7.346;2023-02-28T16:09:52;4.90;99.90
12588;DHT22;6359;51.450;7.346;2023-02-28T16:12:20;5.00;99.90
12588;DHT22;6359;51.450;7.346;2023-02-28T16:14:52;4.90;99.90
12588;DHT22;6359;51.450;7.346;2023-02-28T16:17:23;4.80;99.90
12588;DHT22;6359;51.450;7.346;2023-02-28T16:19:50;4.70;99.90
12588;DHT22;6359;51.450;7.346;2023-02-28T16:22:17;4.60;99.90
12588;DHT22;6359;51.450;7.346;2023-02-28T16:24:45;4.40;99.90
12588;DHT22;6359;51.450;7.346;2023-02-28T16:27:18;4.40;99.90
12588;DHT22;6359;51.450;7.346;2023-02-28T16:29:47;4.40;99.90
12588;DHT22;6359;51.450;7.346;2023-02-28T16:32:15;4.30;99.90